aviador You're here:

ZWWW Decoded Metar

URUMQI in CHINA
Report Time2018-02-25 15:00:00
UTC Time2018-02-25 15:15:35
Flight Rules ifr IFR
WindVRB at 2 kt
Visibility1600 m
Phenomena:Mist
Clouds:Broken 007 Hf
Expected CloudBase > 400 ft AGL from Temp-Dew spread
Ceiling700 ft
Temp-4°C (ISA -15)
Dew Point-5°C (93% RH)
AAT-7.3°C
QNH1025 hPa
Density Alt-3 ft
Elevation2,146 ft
Report Wrong Elevation
Raw Report
ZWWW 251500Z VRB01MPS 1600 BR BKN007 M04/M05 Q1025 NOSIG=

Extra information for ZWWW:More info

Metar Taf Metar & Taf Last 4 Metars F.Rules Stats Wind Profile Meteogram Temp Stats Airport Information Weather charts Add Link Nearby VenuesMetar ALERT Operation Metar Decoded Social comments